Time;durP1;ratioP1;P1;durP2;ratioP2;P2;SDS_P1;SDS_P2;PMS_P1;PMS_P2;Temp;Humidity;BMP_temperature;BMP_pressure;BME280_temperature;BME280_humidity;BME280_pressure;Samples;Min_cycle;Max_cycle;Signal;HPM_P1;HPM_P2
2022/04/06 00:00:59;;;;;;;11.82;2.30;;;9.60;84.80;;;;;;4948358;29;20059;-69
2022/04/06 00:03:26;;;;;;;12.00;2.08;;;9.60;85.00;;;;;;4928146;29;20043;-69
2022/04/06 00:05:54;;;;;;;12.07;2.22;;;9.50;85.20;;;;;;4952217;29;20052;-69
2022/04/06 00:08:22;;;;;;;14.50;2.38;;;9.50;85.50;;;;;;4946147;29;20367;-69
2022/04/06 00:10:49;;;;;;;13.80;2.35;;;9.50;85.60;;;;;;4939326;29;20039;-69
2022/04/06 00:13:17;;;;;;;3.25;1.13;;;9.40;85.80;;;;;;4953767;29;20054;-69
2022/04/06 00:15:45;;;;;;;15.63;2.45;;;9.50;86.10;;;;;;4953346;28;20043;-69
2022/04/06 00:18:12;;;;;;;14.73;2.85;;;9.40;86.00;;;;;;4951752;29;20062;-69
2022/04/06 00:20:40;;;;;;;10.00;1.85;;;9.40;86.10;;;;;;4940617;29;20420;-69
2022/04/06 00:23:09;;;;;;;6.35;1.88;;;9.40;86.20;;;;;;4946501;29;20059;-69
2022/04/06 00:25:36;;;;;;;7.70;2.03;;;9.40;86.30;;;;;;4941075;29;20047;-69
2022/04/06 00:28:04;;;;;;;16.80;2.47;;;9.40;86.50;;;;;;4950617;29;20058;-69
2022/04/06 00:30:31;;;;;;;6.93;1.63;;;9.30;86.70;;;;;;4947342;29;20544;-69
2022/04/06 00:32:59;;;;;;;8.02;2.25;;;9.30;86.90;;;;;;4953515;29;20062;-68
2022/04/06 00:35:31;;;;;;;14.93;2.28;;;9.30;87.00;;;;;;4941764;29;20470;-69
2022/04/06 00:38:00;;;;;;;11.52;2.60;;;9.30;87.20;;;;;;4942017;29;20062;-69
2022/04/06 00:40:28;;;;;;;8.95;2.55;;;9.30;87.40;;;;;;4940867;28;20066;-69
2022/04/06 00:42:55;;;;;;;11.27;2.05;;;9.30;87.60;;;;;;4945742;28;20047;-68
2022/04/06 00:45:24;;;;;;;9.18;2.20;;;9.30;87.60;;;;;;4939220;29;20078;-69
2022/04/06 00:47:53;;;;;;;15.25;1.73;;;9.30;87.90;;;;;;4947264;29;20043;-69
2022/04/06 00:50:21;;;;;;;10.15;1.70;;;9.30;87.90;;;;;;4948111;29;20050;-69
2022/04/06 00:52:49;;;;;;;12.60;2.60;;;9.30;88.00;;;;;;4934070;29;20486;-69
2022/04/06 00:55:17;;;;;;;11.45;1.85;;;9.30;88.00;;;;;;4945827;29;20084;-69
2022/04/06 00:57:44;;;;;;;13.63;2.33;;;9.30;88.00;;;;;;4938269;29;20466;-68
2022/04/06 01:00:13;;;;;;;12.85;2.15;;;9.30;88.10;;;;;;4939930;29;20051;-68
2022/04/06 01:02:41;;;;;;;12.52;2.10;;;9.30;88.10;;;;;;4954639;29;20047;-69
2022/04/06 01:05:09;;;;;;;11.75;2.25;;;9.30;88.10;;;;;;4945282;29;20043;-68
2022/04/06 01:07:37;;;;;;;11.30;1.75;;;9.30;88.10;;;;;;4935437;29;20047;-68
2022/04/06 01:10:05;;;;;;;8.07;1.88;;;9.30;88.10;;;;;;4935458;29;20513;-68
2022/04/06 01:12:38;;;;;;;6.40;1.33;;;9.30;88.00;;;;;;4936067;29;20040;-69
2022/04/06 01:15:07;;;;;;;12.15;1.60;;;9.40;88.10;;;;;;4933651;29;20056;-69
2022/04/06 01:17:35;;;;;;;11.25;1.85;;;9.40;88.00;;;;;;4938093;29;20039;-69
2022/04/06 01:20:08;;;;;;;7.55;1.60;;;9.40;88.00;;;;;;4934055;29;20047;-69
2022/04/06 01:22:36;;;;;;;10.00;1.50;;;9.40;87.90;;;;;;4933497;29;20063;-69
2022/04/06 01:25:05;;;;;;;5.00;1.58;;;9.40;87.90;;;;;;4952167;29;20047;-69
2022/04/06 01:27:34;;;;;;;6.35;1.48;;;9.40;87.90;;;;;;4954285;29;20047;-68
2022/04/06 01:30:02;;;;;;;4.60;1.20;;;9.30;87.90;;;;;;4950447;28;20058;-68
2022/04/06 01:32:32;;;;;;;7.45;1.40;;;9.40;87.80;;;;;;4933078;29;20051;-68
2022/04/06 01:35:00;;;;;;;10.85;1.88;;;9.50;87.70;;;;;;4943907;29;20190;-69
2022/04/06 01:37:28;;;;;;;6.15;1.27;;;9.50;87.60;;;;;;4947067;29;20062;-68
2022/04/06 01:39:57;;;;;;;6.03;1.10;;;9.50;87.60;;;;;;4951538;29;20051;-68
2022/04/06 01:42:24;;;;;;;3.85;0.98;;;9.50;87.50;;;;;;4950835;29;20058;-68
2022/04/06 01:44:53;;;;;;;4.00;0.90;;;9.50;87.50;;;;;;4935441;29;20433;-69
2022/04/06 01:47:21;;;;;;;5.97;0.80;;;9.50;87.30;;;;;;4940164;29;20047;-68
2022/04/06 01:52:37;;;;;;;2.88;0.98;;;9.60;87.20;;;;;;4943905;29;20047;-69
2022/04/06 01:55:14;;;;;;;3.65;0.80;;;9.60;87.10;;;;;;4937520;29;20053;-69
2022/04/06 01:57:43;;;;;;;2.83;0.70;;;9.70;87.00;;;;;;4942154;29;20060;-69
2022/04/06 02:00:17;;;;;;;4.55;0.70;;;9.70;87.00;;;;;;4950020;29;20525;-70
2022/04/06 02:02:53;;;;;;;3.35;0.60;;;9.80;86.90;;;;;;4940004;29;20063;-69
2022/04/06 02:05:21;;;;;;;1.30;0.90;;;9.80;86.90;;;;;;4941212;29;20309;-69
2022/04/06 02:07:52;;;;;;;3.22;0.80;;;9.70;87.00;;;;;;4947351;29;20059;-69
2022/04/06 02:10:20;;;;;;;2.90;0.80;;;9.60;87.20;;;;;;4946362;29;20047;-69
2022/04/06 02:12:48;;;;;;;4.57;0.68;;;9.60;87.40;;;;;;4952934;29;20050;-69
2022/04/06 02:15:16;;;;;;;1.92;0.63;;;9.60;87.40;;;;;;4954932;29;20417;-70
2022/04/06 02:17:44;;;;;;;3.65;0.52;;;9.60;87.40;;;;;;4948449;29;20048;-69
2022/04/06 02:20:12;;;;;;;1.20;0.20;;;9.60;87.30;;;;;;4943144;29;20481;-69
2022/04/06 02:22:42;;;;;;;1.85;0.40;;;9.70;87.10;;;;;;4970330;28;20417;-69
2022/04/06 02:25:10;;;;;;;1.48;0.40;;;9.70;86.90;;;;;;4945470;28;20059;-69
2022/04/06 02:27:45;;;;;;;6.80;0.43;;;9.70;86.90;;;;;;4949061;29;20047;-69
2022/04/06 02:30:13;;;;;;;3.40;0.50;;;9.70;86.90;;;;;;4956275;28;20079;-68
2022/04/06 02:32:41;;;;;;;1.63;0.32;;;9.70;87.00;;;;;;4953883;29;20042;-69
2022/04/06 02:35:09;;;;;;;3.15;0.40;;;9.70;87.10;;;;;;4950671;29;20058;-68
2022/04/06 02:37:39;;;;;;;4.18;0.57;;;9.70;87.20;;;;;;4964450;28;20051;-69
2022/04/06 02:40:08;;;;;;;3.20;0.88;;;9.70;87.20;;;;;;4955783;29;20666;-69
2022/04/06 02:42:35;;;;;;;3.35;0.45;;;9.80;87.20;;;;;;4955998;28;20054;-69
2022/04/06 02:45:03;;;;;;;3.10;0.57;;;9.70;87.10;;;;;;4956430;29;20047;-69
2022/04/06 02:47:31;;;;;;;6.63;0.70;;;9.80;87.10;;;;;;4940024;29;20409;-69
2022/04/06 02:49:59;;;;;;;3.17;0.77;;;9.70;87.10;;;;;;4942069;29;20055;-69
2022/04/06 02:52:26;;;;;;;6.22;1.17;;;9.70;87.00;;;;;;4956017;29;20058;-69
2022/04/06 02:54:54;;;;;;;3.63;0.50;;;9.70;86.80;;;;;;4945061;29;20052;-69
2022/04/06 02:57:21;;;;;;;5.20;0.60;;;9.70;86.70;;;;;;4952298;29;20062;-69
2022/04/06 02:59:49;;;;;;;3.08;0.77;;;9.60;86.60;;;;;;4950439;28;20422;-69
2022/04/06 03:02:16;;;;;;;4.25;1.00;;;9.60;86.50;;;;;;4953324;29;20043;-69
2022/04/06 03:04:44;;;;;;;5.72;1.23;;;9.60;86.40;;;;;;4946165;29;20047;-69
2022/04/06 03:07:16;;;;;;;5.20;1.30;;;9.50;86.20;;;;;;4938173;29;20077;-69
2022/04/06 03:09:44;;;;;;;3.83;0.90;;;9.50;86.20;;;;;;4942010;29;20058;-69
2022/04/06 03:12:11;;;;;;;9.95;1.27;;;9.40;86.30;;;;;;4955541;29;20551;-69
2022/04/06 03:14:39;;;;;;;4.63;0.90;;;9.40;86.40;;;;;;4942406;29;20552;-69
2022/04/06 03:17:06;;;;;;;5.32;1.33;;;9.40;86.30;;;;;;4947600;29;20489;-69
2022/04/06 03:19:34;;;;;;;5.13;0.55;;;9.30;86.20;;;;;;4941020;29;20379;-69
2022/04/06 03:22:03;;;;;;;7.93;1.45;;;9.30;86.30;;;;;;4954752;28;20051;-69
2022/04/06 03:24:31;;;;;;;9.40;1.60;;;9.30;86.20;;;;;;4947450;29;20059;-69
2022/04/06 03:26:58;;;;;;;7.43;1.33;;;9.30;86.10;;;;;;4946578;29;20055;-69
2022/04/06 03:29:26;;;;;;;9.40;1.20;;;9.30;86.10;;;;;;4948554;29;20050;-69
2022/04/06 03:31:53;;;;;;;7.15;1.08;;;9.30;85.80;;;;;;4943416;29;20047;-69
2022/04/06 03:34:21;;;;;;;10.82;1.45;;;9.30;85.60;;;;;;4952693;29;20054;-69
2022/04/06 03:36:49;;;;;;;9.30;1.75;;;9.30;85.50;;;;;;4945741;29;20071;-67
2022/04/06 03:39:16;;;;;;;4.38;1.00;;;9.30;85.20;;;;;;4940717;29;20055;-68
2022/04/06 03:41:44;;;;;;;9.68;1.50;;;9.30;85.00;;;;;;4948939;29;20066;-68
2022/04/06 03:44:11;;;;;;;7.68;1.40;;;9.40;84.80;;;;;;4947844;29;20056;-69
2022/04/06 03:46:39;;;;;;;12.05;1.60;;;9.40;84.70;;;;;;4944697;29;20051;-68
2022/04/06 03:49:07;;;;;;;11.85;1.67;;;9.40;84.80;;;;;;4953937;29;20062;-68
2022/04/06 03:51:35;;;;;;;6.88;1.20;;;9.30;84.80;;;;;;4945958;29;20494;-68
2022/04/06 03:54:04;;;;;;;6.88;1.25;;;9.30;84.90;;;;;;4938469;29;20055;-69
2022/04/06 03:56:32;;;;;;;11.70;1.80;;;9.30;84.80;;;;;;4948501;29;20050;-68
2022/04/06 03:59:00;;;;;;;12.50;1.75;;;9.30;84.80;;;;;;4947223;29;20059;-69
2022/04/06 04:01:30;;;;;;;5.35;1.05;;;9.30;84.50;;;;;;4945884;29;20040;-68
2022/04/06 04:03:59;;;;;;;7.47;1.58;;;9.30;84.30;;;;;;4946809;28;20056;-68
2022/04/06 04:06:26;;;;;;;11.20;1.85;;;9.30;84.20;;;;;;4942127;29;20047;-68
2022/04/06 04:08:54;;;;;;;9.68;1.50;;;9.30;84.10;;;;;;4943683;29;20047;-69
2022/04/06 04:11:21;;;;;;;7.82;1.63;;;9.30;84.10;;;;;;4953102;29;20051;-69
2022/04/06 04:13:49;;;;;;;8.48;1.00;;;9.20;83.90;;;;;;4949015;28;20063;-69
2022/04/06 04:16:17;;;;;;;12.45;1.52;;;9.30;83.70;;;;;;4936219;29;20067;-68
2022/04/06 04:18:44;;;;;;;7.15;1.50;;;9.30;83.40;;;;;;4936529;29;20501;-68
2022/04/06 04:24:08;;;;;;;10.77;1.60;;;9.30;82.90;;;;;;4943748;29;20048;-69
2022/04/06 04:26:38;;;;;;;11.23;1.60;;;9.30;82.50;;;;;;4946477;29;20074;-69
2022/04/06 04:29:07;;;;;;;15.02;1.67;;;9.30;81.90;;;;;;4952639;28;20043;-69
2022/04/06 04:31:35;;;;;;;7.78;1.80;;;9.30;81.50;;;;;;4968707;28;20047;-68
2022/04/06 04:34:03;;;;;;;5.68;1.20;;;9.30;81.60;;;;;;4951888;29;20055;-68
2022/04/06 04:36:31;;;;;;;9.73;2.05;;;9.30;81.20;;;;;;4945784;29;20051;-68
2022/04/06 04:39:00;;;;;;;5.07;0.95;;;9.30;81.10;;;;;;4943753;29;20513;-68
2022/04/06 04:41:28;;;;;;;11.18;1.80;;;9.30;81.30;;;;;;4935748;29;20063;-68
2022/04/06 04:43:56;;;;;;;10.57;1.77;;;9.30;81.40;;;;;;4950061;29;20064;-68
2022/04/06 04:46:24;;;;;;;7.15;1.33;;;9.30;81.60;;;;;;4935168;29;20059;-68
2022/04/06 04:48:52;;;;;;;12.20;1.83;;;9.30;81.70;;;;;;4940370;29;20054;-68
2022/04/06 04:51:19;;;;;;;17.90;1.65;;;9.30;81.60;;;;;;4969225;28;20416;-69
2022/04/06 04:53:47;;;;;;;13.98;1.73;;;9.20;81.60;;;;;;4950141;29;20055;-68
2022/04/06 04:56:16;;;;;;;9.32;1.35;;;9.30;81.60;;;;;;4950338;29;20043;-68
2022/04/06 04:58:43;;;;;;;19.15;2.20;;;9.30;81.70;;;;;;4952017;29;20055;-68
2022/04/06 05:01:11;;;;;;;10.57;1.67;;;9.20;81.80;;;;;;4940962;29;20477;-68
2022/04/06 05:03:39;;;;;;;10.00;1.80;;;9.20;82.00;;;;;;4950943;29;20426;-68
2022/04/06 05:06:06;;;;;;;15.75;2.30;;;9.20;82.00;;;;;;4944790;29;20063;-68
2022/04/06 05:08:34;;;;;;;10.68;1.77;;;9.20;82.10;;;;;;4950493;29;20039;-68
2022/04/06 05:11:01;;;;;;;14.23;1.90;;;9.20;82.10;;;;;;4952421;29;20055;-69
2022/04/06 05:13:29;;;;;;;14.18;2.13;;;9.20;82.20;;;;;;4942889;29;20047;-68
2022/04/06 05:15:58;;;;;;;11.50;1.80;;;9.20;82.00;;;;;;4953706;29;20433;-68
2022/04/06 05:18:26;;;;;;;11.50;1.60;;;9.20;82.00;;;;;;4944813;29;20044;-68
2022/04/06 05:20:53;;;;;;;12.60;1.77;;;9.20;81.80;;;;;;4938500;29;20055;-68
2022/04/06 05:23:21;;;;;;;16.15;2.40;;;9.10;82.00;;;;;;4944975;29;20043;-68
2022/04/06 05:25:49;;;;;;;12.00;1.88;;;9.10;81.70;;;;;;4947781;29;20043;-68
2022/04/06 05:28:18;;;;;;;11.13;2.40;;;9.10;81.80;;;;;;4949901;29;20090;-68
2022/04/06 05:30:46;;;;;;;16.42;2.95;;;9.00;81.80;;;;;;4946534;29;20055;-68
2022/04/06 05:33:14;;;;;;;18.77;2.33;;;9.00;81.70;;;;;;4942799;29;20397;-68
2022/04/06 05:35:41;;;;;;;14.32;1.95;;;9.00;81.70;;;;;;4946613;29;20454;-68
2022/04/06 05:38:09;;;;;;;13.00;2.60;;;9.00;81.70;;;;;;4950660;29;20050;-69
2022/04/06 05:40:37;;;;;;;20.05;2.83;;;9.00;81.50;;;;;;4952638;28;20054;-69
2022/04/06 05:43:05;;;;;;;14.10;1.77;;;8.90;81.50;;;;;;4952961;29;20047;-69
2022/04/06 05:45:32;;;;;;;18.88;2.25;;;8.90;81.60;;;;;;4948146;29;20043;-70
2022/04/06 05:48:06;;;;;;;12.00;1.87;;;8.90;81.80;;;;;;4947108;29;20043;-69
2022/04/06 05:50:34;;;;;;;13.15;2.22;;;8.80;81.70;;;;;;4945668;28;20062;-69
2022/04/06 05:53:02;;;;;;;12.55;2.35;;;8.80;81.80;;;;;;4950562;29;20406;-69
2022/04/06 05:55:30;;;;;;;13.98;1.75;;;8.80;81.70;;;;;;4936369;29;20050;-69
2022/04/06 05:57:57;;;;;;;12.27;1.60;;;8.80;81.70;;;;;;4941272;29;20054;-68
2022/04/06 06:00:25;;;;;;;12.57;1.48;;;8.80;81.70;;;;;;4947273;28;20058;-69
2022/04/06 06:02:53;;;;;;;11.00;2.25;;;8.80;81.70;;;;;;4941702;29;20617;-70
2022/04/06 06:05:20;;;;;;;14.77;2.42;;;8.80;81.80;;;;;;4938948;29;20067;-69
2022/04/06 06:07:48;;;;;;;8.73;1.48;;;8.80;82.00;;;;;;4945123;29;20058;-69
2022/04/06 06:10:15;;;;;;;7.00;1.33;;;8.80;82.20;;;;;;4949766;29;20397;-69
2022/04/06 06:12:43;;;;;;;9.18;1.38;;;8.80;82.30;;;;;;4937537;29;20403;-70
2022/04/06 06:15:11;;;;;;;12.07;2.22;;;8.80;82.10;;;;;;4942897;29;20059;-70
2022/04/06 06:17:40;;;;;;;5.07;1.13;;;8.80;82.10;;;;;;4942495;29;20047;-69
2022/04/06 06:20:08;;;;;;;16.30;1.75;;;8.70;82.20;;;;;;4950434;29;20046;-69
2022/04/06 06:22:36;;;;;;;12.55;2.00;;;8.70;82.10;;;;;;4935920;29;20059;-69
2022/04/06 06:25:04;;;;;;;9.63;1.73;;;8.70;82.30;;;;;;4943010;29;20528;-69
2022/04/06 06:27:43;;;;;;;11.00;1.50;;;8.70;82.40;;;;;;4937446;29;20055;-69
2022/04/06 06:30:17;;;;;;;9.38;1.48;;;8.80;82.30;;;;;;4943979;29;20047;-69
2022/04/06 06:32:45;;;;;;;11.15;1.42;;;8.80;82.20;;;;;;4940274;29;20056;-69
2022/04/06 06:35:13;;;;;;;18.17;1.92;;;8.70;82.00;;;;;;4940463;29;20047;-69
2022/04/06 06:37:49;;;;;;;10.10;1.67;;;8.70;81.90;;;;;;4948060;28;20055;-70
2022/04/06 06:40:18;;;;;;;8.23;1.30;;;8.80;81.70;;;;;;4940160;29;20044;-70
2022/04/06 06:42:46;;;;;;;7.97;1.33;;;8.80;81.70;;;;;;4948742;29;20343;-69
2022/04/06 06:45:14;;;;;;;7.22;1.33;;;8.80;81.70;;;;;;4934734;29;20070;-70
2022/04/06 06:47:41;;;;;;;7.88;1.40;;;8.80;81.80;;;;;;4935706;29;20052;-70
2022/04/06 06:50:10;;;;;;;12.88;1.60;;;8.80;81.90;;;;;;4939520;29;20062;-70
2022/04/06 06:52:39;;;;;;;8.90;1.42;;;8.80;81.80;;;;;;4943644;29;20050;-70
2022/04/06 06:55:14;;;;;;;10.23;1.50;;;8.80;81.70;;;;;;4937999;29;20063;-70
2022/04/06 06:57:42;;;;;;;12.70;1.70;;;8.80;81.70;;;;;;4945615;29;20051;-70
2022/04/06 07:00:11;;;;;;;11.60;1.55;;;8.90;81.70;;;;;;4951514;29;20413;-70
2022/04/06 07:02:41;;;;;;;13.65;1.83;;;8.90;81.50;;;;;;4947929;29;20062;-70
2022/04/06 07:05:09;;;;;;;11.68;1.38;;;9.00;81.30;;;;;;4943299;29;20048;-70
2022/04/06 07:07:53;;;;;;;7.10;1.17;;;9.10;81.20;;;;;;4943771;28;20063;-70
2022/04/06 07:10:22;;;;;;;14.60;1.60;;;9.20;80.60;;;;;;4946472;29;20052;-70
2022/04/06 07:12:50;;;;;;;14.65;1.58;;;9.30;80.20;;;;;;4942076;29;20406;-70
2022/04/06 07:15:19;;;;;;;8.00;1.40;;;9.30;79.60;;;;;;4959161;28;20047;-69
2022/04/06 07:18:07;;;;;;;11.32;1.65;;;9.30;79.50;;;;;;4952623;29;20425;-69
2022/04/06 07:20:38;;;;;;;9.98;1.35;;;9.30;79.50;;;;;;4948014;29;20055;-70
2022/04/06 07:23:07;;;;;;;9.27;1.48;;;9.40;78.50;;;;;;4948162;29;20052;-70
2022/04/06 07:25:35;;;;;;;9.63;1.33;;;9.40;78.30;;;;;;4947987;29;20509;-69
2022/04/06 07:28:03;;;;;;;7.28;0.90;;;9.40;78.20;;;;;;4943804;29;20524;-70
2022/04/06 07:30:31;;;;;;;9.02;1.10;;;9.50;77.80;;;;;;4946726;28;20060;-70
2022/04/06 07:32:58;;;;;;;5.63;1.00;;;9.40;77.80;;;;;;4946320;29;20050;-69
2022/04/06 07:35:27;;;;;;;12.15;1.95;;;9.50;77.40;;;;;;4954807;29;20184;-68
2022/04/06 07:37:54;;;;;;;9.82;1.65;;;9.50;77.40;;;;;;4941852;28;20102;-68
2022/04/06 07:40:23;;;;;;;6.25;1.05;;;9.50;77.30;;;;;;4940999;29;20060;-68
2022/04/06 07:42:52;;;;;;;6.88;1.20;;;9.50;76.80;;;;;;4943314;28;20043;-70
2022/04/06 07:45:21;;;;;;;5.50;1.15;;;9.50;76.40;;;;;;4941959;29;20060;-69
2022/04/06 07:47:50;;;;;;;7.38;1.52;;;9.50;75.70;;;;;;4962082;28;20059;-69
2022/04/06 07:50:19;;;;;;;3.03;0.77;;;9.60;76.20;;;;;;4944857;29;20052;-68
2022/04/06 07:52:48;;;;;;;5.63;1.05;;;9.50;76.10;;;;;;4943281;29;20048;-68
2022/04/06 07:55:15;;;;;;;3.15;0.95;;;9.60;75.50;;;;;;4948099;28;20055;-68
2022/04/06 07:57:43;;;;;;;11.45;1.63;;;9.60;75.30;;;;;;4954266;29;20043;-69
2022/04/06 08:00:16;;;;;;;3.78;0.60;;;9.60;75.30;;;;;;4945890;28;20062;-69
2022/04/06 08:02:49;;;;;;;7.53;0.82;;;9.60;75.30;;;;;;4948805;28;20493;-68
2022/04/06 08:05:17;;;;;;;2.58;0.45;;;9.60;75.00;;;;;;4936252;29;20055;-69
2022/04/06 08:07:48;;;;;;;1.48;0.40;;;9.60;74.70;;;;;;4956006;29;20058;-69
2022/04/06 08:10:17;;;;;;;5.65;1.17;;;9.60;74.30;;;;;;4944676;29;20051;-68
2022/04/06 08:12:45;;;;;;;2.05;0.55;;;9.60;74.20;;;;;;4945530;29;20073;-68
2022/04/06 08:15:15;;;;;;;5.32;0.98;;;9.70;73.90;;;;;;4945854;28;20050;-68
2022/04/06 08:17:47;;;;;;;5.28;0.85;;;9.70;74.30;;;;;;4949484;29;20055;-69
2022/04/06 08:20:17;;;;;;;8.70;1.50;;;9.60;74.90;;;;;;4948031;29;20062;-69
2022/04/06 08:22:46;;;;;;;8.30;1.33;;;9.50;75.50;;;;;;4955640;29;20515;-69
2022/04/06 08:25:14;;;;;;;4.53;1.02;;;9.50;75.90;;;;;;4953992;29;20043;-68
2022/04/06 08:28:02;;;;;;;7.13;1.15;;;9.50;76.10;;;;;;4936801;29;20054;-68
2022/04/06 08:30:29;;;;;;;6.05;0.88;;;9.50;76.30;;;;;;4945116;29;20051;-69
2022/04/06 08:32:58;;;;;;;10.43;1.17;;;9.40;76.50;;;;;;4942001;29;20047;-68
2022/04/06 08:35:27;;;;;;;7.53;0.85;;;9.40;76.70;;;;;;4949115;29;20054;-68
2022/04/06 08:37:55;;;;;;;8.23;1.00;;;9.50;76.70;;;;;;4948521;29;20043;-69
2022/04/06 08:40:22;;;;;;;6.25;1.30;;;9.60;76.60;;;;;;4948224;29;20047;-68
2022/04/06 08:42:51;;;;;;;4.65;0.98;;;9.80;76.10;;;;;;4948146;29;20410;-69
2022/04/06 08:45:18;;;;;;;2.92;0.65;;;10.00;75.80;;;;;;4943049;29;20428;-69
2022/04/06 08:47:48;;;;;;;3.17;0.70;;;10.20;74.50;;;;;;4945726;28;20066;-69
2022/04/06 08:50:18;;;;;;;7.53;1.00;;;10.50;74.10;;;;;;4948967;29;20050;-69
2022/04/06 08:52:47;;;;;;;4.90;1.20;;;10.70;73.50;;;;;;4942103;28;20047;-69
2022/04/06 08:55:34;;;;;;;5.65;0.88;;;10.90;73.80;;;;;;4946441;29;20091;-69
2022/04/06 08:58:03;;;;;;;4.45;0.70;;;11.20;72.60;;;;;;4945351;29;20062;-67
2022/04/06 09:00:34;;;;;;;9.10;1.35;;;11.30;72.10;;;;;;4943268;29;20417;-68
2022/04/06 09:03:02;;;;;;;5.75;0.93;;;11.30;71.00;;;;;;4944178;29;20063;-68
2022/04/06 09:05:32;;;;;;;2.70;0.63;;;11.10;71.70;;;;;;4947460;29;20054;-69
2022/04/06 09:08:02;;;;;;;5.60;1.05;;;11.00;71.80;;;;;;4944669;29;20055;-69
2022/04/06 09:10:36;;;;;;;2.58;0.70;;;10.80;72.30;;;;;;4962307;28;20392;-68
2022/04/06 09:13:13;;;;;;;5.68;1.10;;;10.70;73.30;;;;;;4945298;29;20048;-68
2022/04/06 09:15:43;;;;;;;3.03;0.63;;;10.50;74.40;;;;;;4945951;29;20058;-67
2022/04/06 09:18:10;;;;;;;5.07;0.82;;;10.40;74.70;;;;;;4936441;29;20054;-72
2022/04/06 09:20:38;;;;;;;3.53;0.68;;;10.30;75.30;;;;;;4944199;29;20047;-71
2022/04/06 09:23:07;;;;;;;4.20;1.05;;;10.20;76.40;;;;;;4947016;29;20490;-71
2022/04/06 09:25:39;;;;;;;4.82;0.90;;;10.00;77.30;;;;;;4940639;29;20047;-69
2022/04/06 09:28:11;;;;;;;6.47;0.70;;;9.90;78.50;;;;;;4950134;29;20047;-69
2022/04/06 09:30:45;;;;;;;9.68;0.77;;;9.70;79.20;;;;;;4945354;29;20102;-69
2022/04/06 09:33:14;;;;;;;5.75;0.38;;;9.40;80.90;;;;;;4948422;29;20039;-68
2022/04/06 09:35:43;;;;;;;4.60;0.50;;;9.10;82.10;;;;;;4947693;29;20054;-67
2022/04/06 09:38:10;;;;;;;2.22;0.47;;;8.80;83.20;;;;;;4948050;29;20051;-67
2022/04/06 09:40:39;;;;;;;5.15;0.70;;;8.70;83.90;;;;;;4947228;29;20062;-68
2022/04/06 09:43:08;;;;;;;4.32;0.50;;;8.50;83.80;;;;;;4946862;29;20055;-68
2022/04/06 09:48:21;;;;;;;5.95;0.40;;;8.30;84.10;;;;;;4945474;28;20043;-68
2022/04/06 09:50:56;;;;;;;0.63;0.30;;;8.20;83.70;;;;;;4946443;29;20512;-68
2022/04/06 09:53:27;;;;;;;1.85;0.17;;;8.20;84.00;;;;;;4944644;29;20067;-67
2022/04/06 09:55:55;;;;;;;2.63;0.20;;;8.10;84.20;;;;;;4943188;29;20397;-68
2022/04/06 09:58:24;;;;;;;2.35;0.30;;;8.10;84.30;;;;;;4944534;29;20047;-68
2022/04/06 10:00:53;;;;;;;4.80;0.40;;;8.00;84.70;;;;;;4946654;29;20354;-68
2022/04/06 10:03:21;;;;;;;1.30;0.20;;;8.00;84.90;;;;;;4947956;29;20058;-68
2022/04/06 10:05:51;;;;;;;1.75;0.30;;;8.00;85.10;;;;;;4946845;29;20047;-67
2022/04/06 10:08:21;;;;;;;2.53;0.30;;;8.00;84.70;;;;;;4949981;29;20080;-67
2022/04/06 10:10:51;;;;;;;1.88;0.30;;;7.90;84.20;;;;;;4942163;28;20397;-68
2022/04/06 10:13:19;;;;;;;2.00;0.10;;;7.90;84.80;;;;;;4944421;29;20070;-67
2022/04/06 10:16:10;;;;;;;2.47;0.32;;;7.90;85.00;;;;;;4943243;29;20055;-68
2022/04/06 10:18:40;;;;;;;1.35;0.30;;;7.80;84.80;;;;;;4941837;29;20073;-68
2022/04/06 10:21:20;;;;;;;0.90;0.20;;;7.80;85.10;;;;;;4946166;29;20500;-67
2022/04/06 10:24:13;;;;;;;1.55;0.98;;;7.80;85.30;;;;;;4939675;29;20055;-68
2022/04/06 10:26:46;;;;;;;1.55;0.20;;;7.80;85.20;;;;;;4949417;28;20067;-67
2022/04/06 10:29:14;;;;;;;1.92;0.30;;;7.80;85.10;;;;;;4940755;28;20043;-67
2022/04/06 10:31:42;;;;;;;1.38;0.20;;;7.80;85.00;;;;;;4951589;29;20046;-68
2022/04/06 10:34:22;;;;;;;1.95;0.40;;;7.70;84.80;;;;;;4952628;29;20054;-67
2022/04/06 10:37:08;;;;;;;1.77;0.28;;;7.70;85.00;;;;;;4945973;29;20052;-67
2022/04/06 10:40:05;;;;;;;2.58;0.35;;;7.70;85.30;;;;;;4943133;29;20058;-67
2022/04/06 10:42:35;;;;;;;2.45;0.15;;;7.70;84.90;;;;;;4946157;29;20055;-67
2022/04/06 10:45:05;;;;;;;1.63;0.20;;;7.60;85.50;;;;;;4955493;29;20043;-67
2022/04/06 10:47:33;;;;;;;6.50;0.45;;;7.60;85.70;;;;;;4955504;29;20052;-67
2022/04/06 10:50:15;;;;;;;0.93;0.10;;;7.70;85.90;;;;;;4946502;29;20044;-67
2022/04/06 10:52:43;;;;;;;3.35;0.55;;;7.80;85.90;;;;;;4943633;29;20054;-68
2022/04/06 10:55:23;;;;;;;0.90;0.00;;;7.80;85.30;;;;;;4940307;29;20410;-68
2022/04/06 10:58:03;;;;;;;1.13;0.17;;;7.90;85.30;;;;;;4939204;29;20048;-68
2022/04/06 11:00:32;;;;;;;0.82;0.10;;;8.10;85.10;;;;;;4954388;29;20043;-68
2022/04/06 11:03:18;;;;;;;0.45;0.10;;;8.20;84.90;;;;;;4952607;29;20055;-68
2022/04/06 11:05:52;;;;;;;2.08;0.03;;;8.30;83.90;;;;;;4945932;29;20080;-68
2022/04/06 11:11:47;;;;;;;1.13;0.20;;;8.50;84.20;;;;;;4946370;29;20044;-69
2022/04/06 11:14:23;;;;;;;0.30;0.13;;;8.60;83.10;;;;;;4941027;29;20067;-69
2022/04/06 11:16:52;;;;;;;3.92;0.30;;;8.60;82.70;;;;;;4956172;29;20070;-69
2022/04/06 11:19:20;;;;;;;1.00;0.10;;;8.60;82.90;;;;;;4944505;29;20058;-70
2022/04/06 11:21:55;;;;;;;0.80;0.15;;;8.80;82.90;;;;;;4946155;29;20043;-70
2022/04/06 11:24:27;;;;;;;0.03;0.00;;;8.90;81.50;;;;;;4948337;29;20047;-69
2022/04/06 11:26:55;;;;;;;0.90;0.10;;;9.20;81.60;;;;;;4949459;29;20051;-70
2022/04/06 11:29:28;;;;;;;0.40;0.20;;;9.40;80.90;;;;;;4947507;29;20051;-69
2022/04/06 11:32:06;;;;;;;0.55;0.10;;;9.60;79.60;;;;;;4949229;29;20382;-69
2022/04/06 11:34:36;;;;;;;1.20;0.20;;;9.70;78.70;;;;;;4951394;29;20054;-69
2022/04/06 11:37:07;;;;;;;1.45;0.10;;;9.80;78.90;;;;;;4942620;29;20386;-69
2022/04/06 11:39:35;;;;;;;1.00;0.10;;;10.00;79.00;;;;;;4946040;28;20508;-69
2022/04/06 11:42:05;;;;;;;1.10;0.10;;;10.20;78.20;;;;;;4944382;28;20043;-69
2022/04/06 11:44:34;;;;;;;0.57;0.10;;;10.40;77.80;;;;;;4945248;29;20500;-70
2022/04/06 11:47:01;;;;;;;1.10;0.20;;;10.60;75.50;;;;;;4944469;29;20506;-70
2022/04/06 11:49:29;;;;;;;0.28;0.10;;;10.70;75.80;;;;;;4940990;29;20051;-70
2022/04/06 11:51:59;;;;;;;2.95;0.28;;;10.80;75.80;;;;;;4942706;29;20067;-70
2022/04/06 11:54:27;;;;;;;0.00;0.00;;;10.90;75.60;;;;;;4945508;29;20052;-70
2022/04/06 11:56:56;;;;;;;0.10;0.00;;;10.90;73.20;;;;;;4946023;29;20496;-71
2022/04/06 11:59:25;;;;;;;0.35;0.00;;;10.80;74.20;;;;;;4949040;28;20047;-69
2022/04/06 12:01:53;;;;;;;0.65;0.10;;;10.70;73.10;;;;;;4944767;29;20058;-70
2022/04/06 12:04:23;;;;;;;1.00;0.40;;;10.70;73.90;;;;;;4964670;28;20043;-71
2022/04/06 12:06:52;;;;;;;0.40;0.10;;;10.90;74.10;;;;;;4946541;29;20124;-70
2022/04/06 12:09:22;;;;;;;1.13;0.10;;;11.20;75.30;;;;;;4946586;29;20043;-70
2022/04/06 12:11:53;;;;;;;0.55;0.10;;;11.40;74.30;;;;;;4948380;28;20051;-70
2022/04/06 12:14:21;;;;;;;1.25;0.10;;;11.50;74.20;;;;;;4946377;29;20035;-70
2022/04/06 12:16:50;;;;;;;2.30;0.30;;;11.60;70.80;;;;;;4949186;29;20055;-70
2022/04/06 12:19:19;;;;;;;0.00;0.00;;;11.60;70.40;;;;;;4947781;29;20050;-70
2022/04/06 12:21:48;;;;;;;0.98;0.30;;;11.80;69.40;;;;;;4950895;29;20047;-70
2022/04/06 12:24:20;;;;;;;0.45;0.20;;;11.80;69.20;;;;;;4965807;28;20058;-71
2022/04/06 12:26:54;;;;;;;0.55;0.10;;;12.00;70.00;;;;;;4942518;29;20040;-73
2022/04/06 12:29:22;;;;;;;1.67;0.22;;;12.30;69.10;;;;;;4947139;29;20047;-70
2022/04/06 12:31:52;;;;;;;0.88;0.25;;;12.60;67.90;;;;;;4945653;29;20051;-69
2022/04/06 12:34:33;;;;;;;3.33;0.30;;;12.90;67.70;;;;;;4945286;28;20047;-69
2022/04/06 12:39:57;;;;;;;0.68;0.25;;;13.60;64.70;;;;;;4943814;29;20374;-70
2022/04/06 12:42:25;;;;;;;1.17;0.28;;;13.90;62.40;;;;;;4939027;29;20058;-69
2022/04/06 12:44:58;;;;;;;0.35;0.10;;;13.90;60.90;;;;;;4944468;29;20051;-69
2022/04/06 12:47:26;;;;;;;3.53;0.30;;;13.80;59.80;;;;;;4940503;29;20508;-69
2022/04/06 12:50:11;;;;;;;1.10;0.20;;;13.30;60.20;;;;;;4947753;28;20047;-69
2022/04/06 12:52:39;;;;;;;1.75;0.50;;;13.30;59.50;;;;;;4943721;29;20043;-69
2022/04/06 12:55:13;;;;;;;0.65;0.20;;;13.50;59.80;;;;;;4943918;29;20051;-70
2022/04/06 12:57:41;;;;;;;6.53;0.52;;;13.40;58.80;;;;;;4946673;29;20051;-69
2022/04/06 13:00:24;;;;;;;0.82;0.10;;;13.30;58.90;;;;;;4944633;29;20390;-69
2022/04/06 13:02:52;;;;;;;2.00;0.43;;;13.30;58.20;;;;;;4947395;29;20054;-69
2022/04/06 13:05:21;;;;;;;2.15;0.30;;;13.80;56.40;;;;;;4946710;29;20054;-69
2022/04/06 13:07:51;;;;;;;1.67;0.10;;;14.00;56.40;;;;;;4941903;29;20043;-69
2022/04/06 13:10:34;;;;;;;4.07;0.68;;;14.00;54.90;;;;;;4944473;29;20401;-69
2022/04/06 13:13:02;;;;;;;;;;;13.90;55.80;;;;;;4945465;29;20082;-69
2022/04/06 13:15:30;;;;;;;1.83;0.25;;;13.90;55.70;;;;;;4947290;29;19923;-69
2022/04/06 13:17:58;;;;;;;2.22;0.30;;;13.70;56.60;;;;;;4948300;29;20054;-69
2022/04/06 13:20:25;;;;;;;2.20;0.25;;;13.30;56.40;;;;;;4945291;29;20047;-69